Time;durP1;ratioP1;P1;durP2;ratioP2;P2;SDS_P1;SDS_P2;PMS_P1;PMS_P2;Temp;Humidity;BMP_temperature;BMP_pressure;BME280_temperature;BME280_humidity;BME280_pressure;Samples;Min_cycle;Max_cycle;Signal;HPM_P1;HPM_P2
2022/01/20 00:00:01;;;;;;;;;;;;;;;;;;2212270;67;15610;-69
2022/01/20 00:02:36;;;;;;;;;;;;;;;;;;2213152;63;22310;-69
2022/01/20 00:05:25;;;;;;;;;;;;;;;;;;2213001;59;29747;-69
2022/01/20 00:28:02;;;;;;;;;;;;;;;;;;2196191;59;16669;-69
2022/01/20 00:30:43;;;;;;;;;;;;;;;;;;2196089;59;15656;-69
2022/01/20 00:33:22;;;;;;;;;;;;;;;;;;2206080;63;16981;-69
2022/01/20 00:38:45;;;;;;;;;;;;;;;;;;2213919;63;18564;-69
2022/01/20 00:41:21;;;;;;;;;;;;;;;;;;2212700;59;15861;-69
2022/01/20 00:43:54;;;;;;;;;;;;;;;;;;2212053;59;29937;-69
2022/01/20 00:46:27;;;;;;;;;;;;;;;;;;2212777;59;15646;-69
2022/01/20 00:49:00;;;;;;;;;;;;;;;;;;2212255;59;15062;-69
2022/01/20 00:51:33;;;;;;;;;;;;;;;;;;2212699;59;18185;-69
2022/01/20 00:54:06;;;;;;;;;;;;;;;;;;2213266;59;14329;-69
2022/01/20 00:56:42;;;;;;;;;;;;;;;;;;2213232;59;18695;-69
2022/01/20 00:59:16;;;;;;;;;;;;;;;;;;2212367;59;14469;-69
2022/01/20 01:01:49;;;;;;;;;;;;;;;;;;2211486;59;23239;-69
2022/01/20 01:04:23;;;;;;;;;;;;;;;;;;2213944;59;21490;-69
2022/01/20 01:07:19;;;;;;;;;;;;;;;;;;2212738;59;24084;-69
2022/01/20 01:09:52;;;;;;;;;;;;;;;;;;2211932;67;15168;-69
2022/01/20 01:12:36;;;;;;;;;;;;;;;;;;2213703;59;18726;-69
2022/01/20 01:15:15;;;;;;;;;;;;;;;;;;2211966;59;17152;-69
2022/01/20 01:21:06;;;;;;;;;;;;;;;;;;2212754;59;14607;-69
2022/01/20 01:23:34;;;;;;;;;;;;;;;;;;2212249;59;20683;-69
2022/01/20 01:28:45;;;;;;;;;;;;;;;;;;2202397;59;13026;-72
2022/01/20 01:34:14;;;;;;;;;;;;;;;;;;2196995;63;17580;-71
2022/01/20 01:37:04;;;;;;;;;;;;;;;;;;2200423;59;18340;-70
2022/01/20 01:39:37;;;;;;;;;;;;;;;;;;2197822;59;17492;-70
2022/01/20 01:42:10;;;;;;;;;;;;;;;;;;2198617;59;17834;-70
2022/01/20 01:44:46;;;;;;;;;;;;;;;;;;2198635;67;21343;-70
2022/01/20 01:47:19;;;;;;;;;;;;;;;;;;2197855;59;15636;-70
2022/01/20 01:49:53;;;;;;;;;;;;;;;;;;2197235;67;21858;-70
2022/01/20 01:52:26;;;;;;;;;;;;;;;;;;2197186;59;18332;-70
2022/01/20 01:54:59;;;;;;;;;;;;;;;;;;2197687;59;17323;-70
2022/01/20 01:57:32;;;;;;;;;;;;;;;;;;2197177;59;25642;-72
2022/01/20 02:00:10;;;;;;;;;;;;;;;;;;2194904;63;14273;-70
2022/01/20 02:02:43;;;;;;;;;;;;;;;;;;2198171;59;22362;-70
2022/01/20 02:05:18;;;;;;;;;;;;;;;;;;2197883;64;16003;-70
2022/01/20 02:08:26;;;;;;;;;;;;;;;;;;2197529;59;15258;-70
2022/01/20 02:19:28;;;;;;;;;;;;;;;;;;2197548;64;21455;-70
2022/01/20 02:22:05;;;;;;;;;;;;;;;;;;2198273;59;16855;-70
2022/01/20 02:24:38;;;;;;;;;;;;;;;;;;2197486;59;19726;-70
2022/01/20 02:27:11;;;;;;;;;;;;;;;;;;2197624;59;14914;-70
2022/01/20 02:29:45;;;;;;;;;;;;;;;;;;2196838;59;14993;-70
2022/01/20 02:32:19;;;;;;;;;;;;;;;;;;2195075;64;15586;-70
2022/01/20 02:34:52;;;;;;;;;;;;;;;;;;2198366;67;15858;-70
2022/01/20 02:37:29;;;;;;;;;;;;;;;;;;2197627;64;16685;-70
2022/01/20 02:40:29;;;;;;;;;;;;;;;;;;2198610;67;16395;-70
2022/01/20 02:45:48;;;;;;;;;;;;;;;;;;2197243;59;15333;-70
2022/01/20 02:48:22;;;;;;;;;;;;;;;;;;2198145;59;21670;-70
2022/01/20 02:50:55;;;;;;;;;;;;;;;;;;2198315;60;14942;-70
2022/01/20 02:53:30;;;;;;;;;;;;;;;;;;2197158;59;17857;-70
2022/01/20 02:56:04;;;;;;;;;;;;;;;;;;2195335;67;15413;-70
2022/01/20 02:58:37;;;;;;;;;;;;;;;;;;2197253;59;14897;-71
2022/01/20 03:01:10;;;;;;;;;;;;;;;;;;2198069;59;23690;-70
2022/01/20 03:03:43;;;;;;;;;;;;;;;;;;2195515;59;19487;-70
2022/01/20 03:06:16;;;;;;;;;;;;;;;;;;2197800;59;19249;-70
2022/01/20 03:08:52;;;;;;;;;;;;;;;;;;2198120;67;16965;-70
2022/01/20 03:11:26;;;;;;;;;;;;;;;;;;2197410;59;18174;-70
2022/01/20 03:13:59;;;;;;;;;;;;;;;;;;2198368;59;20711;-70
2022/01/20 03:16:32;;;;;;;;;;;;;;;;;;2198072;67;26360;-70
2022/01/20 03:19:05;;;;;;;;;;;;;;;;;;2198370;59;16066;-70
2022/01/20 03:21:38;;;;;;;;;;;;;;;;;;2196767;59;15686;-70
2022/01/20 03:24:14;;;;;;;;;;;;;;;;;;2197939;59;20250;-70
2022/01/20 03:26:47;;;;;;;;;;;;;;;;;;2197069;59;18913;-70
2022/01/20 03:29:20;;;;;;;;;;;;;;;;;;2197210;59;15039;-70
2022/01/20 03:31:54;;;;;;;;;;;;;;;;;;2197301;59;24366;-69
2022/01/20 03:34:27;;;;;;;;;;;;;;;;;;2198394;59;17815;-70
2022/01/20 03:37:03;;;;;;;;;;;;;;;;;;2197763;59;15356;-69
2022/01/20 03:39:39;;;;;;;;;;;;;;;;;;2197077;59;17488;-69
2022/01/20 03:42:12;;;;;;;;;;;;;;;;;;2198229;59;15977;-69
2022/01/20 03:44:45;;;;;;;;;;;;;;;;;;2197501;59;17057;-69
2022/01/20 03:47:19;;;;;;;;;;;;;;;;;;2197659;59;20698;-69
2022/01/20 03:50:06;;;;;;;;;;;;;;;;;;2197247;59;19452;-69
2022/01/20 03:52:39;;;;;;;;;;;;;;;;;;2198496;59;14421;-68
2022/01/20 03:55:15;;;;;;;;;;;;;;;;;;2197582;59;16742;-68
2022/01/20 03:57:48;;;;;;;;;;;;;;;;;;2197368;59;15951;-69
2022/01/20 04:00:22;;;;;;;;;;;;;;;;;;2198539;64;17144;-68
2022/01/20 04:02:55;;;;;;;;;;;;;;;;;;2197842;59;16022;-68
2022/01/20 04:05:28;;;;;;;;;;;;;;;;;;2197344;63;25927;-68
2022/01/20 04:08:01;;;;;;;;;;;;;;;;;;2198039;59;18751;-68
2022/01/20 04:10:37;;;;;;;;;;;;;;;;;;2198059;64;16559;-68
2022/01/20 04:13:10;;;;;;;;;;;;;;;;;;2197394;59;32808;-68
2022/01/20 04:15:43;;;;;;;;;;;;;;;;;;2196887;59;16241;-69
2022/01/20 04:18:20;;;;;;;;;;;;;;;;;;2198081;59;19244;-69
2022/01/20 04:20:54;;;;;;;;;;;;;;;;;;2197825;59;22720;-69
2022/01/20 04:23:30;;;;;;;;;;;;;;;;;;2196404;59;18556;-68
2022/01/20 04:26:06;;;;;;;;;;;;;;;;;;2198099;59;17967;-69
2022/01/20 04:28:39;;;;;;;;;;;;;;;;;;2197443;59;22427;-68
2022/01/20 04:31:12;;;;;;;;;;;;;;;;;;2197506;67;19445;-68
2022/01/20 04:33:45;;;;;;;;;;;;;;;;;;2196367;59;24497;-68
2022/01/20 04:36:18;;;;;;;;;;;;;;;;;;2198249;59;26148;-69
2022/01/20 04:38:51;;;;;;;;;;;;;;;;;;2197971;59;16135;-68
2022/01/20 04:41:29;;;;;;;;;;;;;;;;;;2197545;59;19834;-68
2022/01/20 04:44:03;;;;;;;;;;;;;;;;;;2197511;59;20596;-69
2022/01/20 04:46:41;;;;;;;;;;;;;;;;;;2197887;59;15594;-69
2022/01/20 04:57:03;;;;;;;;;;;;;;;;;;2197601;59;17412;-69
2022/01/20 04:58:03;;;;;;;;;;;;;;;;;;2186786;59;16645;-68
2022/01/20 05:00:37;;;;;;;;;;;;;;;;;;2188644;67;20124;-69
2022/01/20 05:03:10;;;;;;;;;;;;;;;;;;2192254;59;18465;-69
2022/01/20 05:05:43;;;;;;;;;;;;;;;;;;2197330;59;19510;-69
2022/01/20 05:08:22;;;;;;;;;;;;;;;;;;2198001;59;15707;-69
2022/01/20 05:10:55;;;;;;;;;;;;;;;;;;2198440;59;14054;-69
2022/01/20 05:13:37;;;;;;;;;;;;;;;;;;2197945;59;22746;-68
2022/01/20 05:16:10;;;;;;;;;;;;;;;;;;2198960;59;15937;-68
2022/01/20 05:18:44;;;;;;;;;;;;;;;;;;2198367;67;19013;-68
2022/01/20 05:21:17;;;;;;;;;;;;;;;;;;2197772;59;20437;-68
2022/01/20 05:23:50;;;;;;;;;;;;;;;;;;2194244;59;28794;-68
2022/01/20 05:26:23;;;;;;;;;;;;;;;;;;2198654;59;14965;-68
2022/01/20 05:28:59;;;;;;;;;;;;;;;;;;2197757;60;18379;-68
2022/01/20 05:31:32;;;;;;;;;;;;;;;;;;2196964;59;21127;-68
2022/01/20 05:34:05;;;;;;;;;;;;;;;;;;2198729;59;16690;-68
2022/01/20 05:36:38;;;;;;;;;;;;;;;;;;2198486;67;22393;-68
2022/01/20 05:39:11;;;;;;;;;;;;;;;;;;2197548;59;23575;-69
2022/01/20 05:41:45;;;;;;;;;;;;;;;;;;2197895;67;16232;-69
2022/01/20 05:44:21;;;;;;;;;;;;;;;;;;2198702;59;15251;-68
2022/01/20 05:46:54;;;;;;;;;;;;;;;;;;2198477;59;16466;-69
2022/01/20 05:49:27;;;;;;;;;;;;;;;;;;2197784;59;20212;-69
2022/01/20 05:52:00;;;;;;;;;;;;;;;;;;2198667;59;17900;-69
2022/01/20 05:54:33;;;;;;;;;;;;;;;;;;2198502;64;17191;-69
2022/01/20 05:57:10;;;;;;;;;;;;;;;;;;2197758;59;16101;-69
2022/01/20 05:59:46;;;;;;;;;;;;;;;;;;2196840;59;17400;-69
2022/01/20 06:02:34;;;;;;;;;;;;;;;;;;2198744;67;18798;-71
2022/01/20 06:05:07;;;;;;;;;;;;;;;;;;2197849;59;17958;-71
2022/01/20 06:07:40;;;;;;;;;;;;;;;;;;2196911;59;21150;-71
2022/01/20 06:10:14;;;;;;;;;;;;;;;;;;2198386;67;21761;-71
2022/01/20 06:12:47;;;;;;;;;;;;;;;;;;2197872;67;21269;-71
2022/01/20 06:15:23;;;;;;;;;;;;;;;;;;2198040;59;17234;-71
2022/01/20 06:17:56;;;;;;;;;;;;;;;;;;2197060;67;19766;-71
2022/01/20 06:20:29;;;;;;;;;;;;;;;;;;2198308;67;22590;-71
2022/01/20 06:23:03;;;;;;;;;;;;;;;;;;2198386;59;15333;-70
2022/01/20 06:25:36;;;;;;;;;;;;;;;;;;2197060;59;24509;-71
2022/01/20 06:28:10;;;;;;;;;;;;;;;;;;2197723;59;14880;-71
2022/01/20 06:30:46;;;;;;;;;;;;;;;;;;2197591;59;18498;-71
2022/01/20 06:33:19;;;;;;;;;;;;;;;;;;2197889;64;17330;-71
2022/01/20 06:35:52;;;;;;;;;;;;;;;;;;2196974;59;16316;-71
2022/01/20 06:38:26;;;;;;;;;;;;;;;;;;2198512;59;14300;-71
2022/01/20 06:41:00;;;;;;;;;;;;;;;;;;2198002;59;17051;-71
2022/01/20 06:43:33;;;;;;;;;;;;;;;;;;2197277;59;24628;-71
2022/01/20 06:46:09;;;;;;;;;;;;;;;;;;2198590;59;17658;-71
2022/01/20 06:48:42;;;;;;;;;;;;;;;;;;2198041;59;16188;-71
2022/01/20 06:51:15;;;;;;;;;;;;;;;;;;2198033;59;15897;-71
2022/01/20 06:53:49;;;;;;;;;;;;;;;;;;2197371;59;19155;-71
2022/01/20 06:56:22;;;;;;;;;;;;;;;;;;2198507;59;19256;-71
2022/01/20 06:58:55;;;;;;;;;;;;;;;;;;2198141;59;24454;-71
2022/01/20 07:01:31;;;;;;;;;;;;;;;;;;2197787;59;21814;-71
2022/01/20 07:04:04;;;;;;;;;;;;;;;;;;2198532;63;19384;-71
2022/01/20 07:06:37;;;;;;;;;;;;;;;;;;2197865;59;15249;-71
2022/01/20 07:09:11;;;;;;;;;;;;;;;;;;2200618;59;16994;-71
2022/01/20 07:11:44;;;;;;;;;;;;;;;;;;2198121;59;16129;-71
2022/01/20 07:14:17;;;;;;;;;;;;;;;;;;2198320;64;24812;-71
2022/01/20 07:16:53;;;;;;;;;;;;;;;;;;2198108;67;15278;-69
2022/01/20 07:19:26;;;;;;;;;;;;;;;;;;2200999;59;17282;-69
2022/01/20 07:21:59;;;;;;;;;;;;;;;;;;2201482;67;14309;-69
2022/01/20 07:24:32;;;;;;;;;;;;;;;;;;2198376;59;22589;-69
2022/01/20 07:27:06;;;;;;;;;;;;;;;;;;2197587;54;17443;-69
2022/01/20 07:29:39;;;;;;;;;;;;;;;;;;2192065;59;37985;-70
2022/01/20 07:32:15;;;;;;;;;;;;;;;;;;2192871;59;18726;-69
2022/01/20 07:34:48;;;;;;;;;;;;;;;;;;2190478;59;24425;-69
2022/01/20 07:37:21;;;;;;;;;;;;;;;;;;2188622;59;19362;-69
2022/01/20 07:39:56;;;;;;;;;;;;;;;;;;2194313;64;24149;-69
2022/01/20 07:42:29;;;;;;;;;;;;;;;;;;2193941;59;20018;-69
2022/01/20 07:45:02;;;;;;;;;;;;;;;;;;2190520;59;15300;-69
2022/01/20 07:47:38;;;;;;;;;;;;;;;;;;2193048;59;21327;-69
2022/01/20 07:50:11;;;;;;;;;;;;;;;;;;2194457;63;26972;-69
2022/01/20 07:52:45;;;;;;;;;;;;;;;;;;2194090;59;15834;-69
2022/01/20 07:55:18;;;;;;;;;;;;;;;;;;2193626;63;13881;-69
2022/01/20 07:57:51;;;;;;;;;;;;;;;;;;2193313;59;21670;-69
2022/01/20 08:00:24;;;;;;;;;;;;;;;;;;2194218;59;21859;-69
2022/01/20 08:03:00;;;;;;;;;;;;;;;;;;2190493;59;22564;-69
2022/01/20 08:05:33;;;;;;;;;;;;;;;;;;2193073;59;18374;-69
2022/01/20 08:08:07;;;;;;;;;;;;;;;;;;2194712;59;16130;-69
2022/01/20 08:10:40;;;;;;;;;;;;;;;;;;2194057;59;18873;-69
2022/01/20 08:13:13;;;;;;;;;;;;;;;;;;2192002;59;17412;-69
2022/01/20 08:15:46;;;;;;;;;;;;;;;;;;2193212;67;22087;-69
2022/01/20 08:18:22;;;;;;;;;;;;;;;;;;2193639;59;24771;-69
2022/01/20 08:20:55;;;;;;;;;;;;;;;;;;2195295;59;16543;-69
2022/01/20 08:23:29;;;;;;;;;;;;;;;;;;2191348;59;20164;-70
2022/01/20 08:26:02;;;;;;;;;;;;;;;;;;2194098;67;19857;-69
2022/01/20 08:28:35;;;;;;;;;;;;;;;;;;2193867;59;17914;-69
2022/01/20 08:31:08;;;;;;;;;;;;;;;;;;2193804;59;18232;-69
2022/01/20 08:33:46;;;;;;;;;;;;;;;;;;2197484;59;22600;-69
2022/01/20 08:36:19;;;;;;;;;;;;;;;;;;2193069;59;15935;-69
2022/01/20 08:38:52;;;;;;;;;;;;;;;;;;2194060;59;24290;-69
2022/01/20 08:41:25;;;;;;;;;;;;;;;;;;2193552;63;19550;-69
2022/01/20 08:43:58;;;;;;;;;;;;;;;;;;2194923;59;16627;-69
2022/01/20 08:46:31;;;;;;;;;;;;;;;;;;2195302;59;18266;-69
2022/01/20 08:49:07;;;;;;;;;;;;;;;;;;2194453;59;21163;-69
2022/01/20 08:51:42;;;;;;;;;;;;;;;;;;2193551;59;27191;-69
2022/01/20 08:54:15;;;;;;;;;;;;;;;;;;2194018;59;23317;-69
2022/01/20 08:56:50;;;;;;;;;;;;;;;;;;2194310;59;20604;-69
2022/01/20 08:59:23;;;;;;;;;;;;;;;;;;2194137;64;15846;-70
2022/01/20 09:01:56;;;;;;;;;;;;;;;;;;2194157;59;21189;-69
2022/01/20 09:04:32;;;;;;;;;;;;;;;;;;2194727;59;19507;-69
2022/01/20 09:07:05;;;;;;;;;;;;;;;;;;2195152;59;28661;-70
2022/01/20 09:09:43;;;;;;;;;;;;;;;;;;2192984;59;17637;-70
2022/01/20 09:15:27;;;;;;;;;;;;;;;;;;2193805;63;23750;-70
2022/01/20 09:15:29;;;;;;;;;;;;;;;;;;2193209;59;18334;-69
2022/01/20 09:18:03;;;;;;;;;;;;;;;;;;2194214;59;20816;-69
2022/01/20 09:20:40;;;;;;;;;;;;;;;;;;2193630;59;19969;-69
2022/01/20 09:23:13;;;;;;;;;;;;;;;;;;2193977;67;25496;-69
2022/01/20 09:25:49;;;;;;;;;;;;;;;;;;2192676;59;35570;-70
2022/01/20 09:28:22;;;;;;;;;;;;;;;;;;2194380;59;18226;-70
2022/01/20 09:31:00;;;;;;;;;;;;;;;;;;2194309;59;16138;-70
2022/01/20 09:33:33;;;;;;;;;;;;;;;;;;2195106;59;20886;-70
2022/01/20 09:36:12;;;;;;;;;;;;;;;;;;2193755;59;19747;-69
2022/01/20 09:38:45;;;;;;;;;;;;;;;;;;2193545;59;23604;-70
2022/01/20 09:41:18;;;;;;;;;;;;;;;;;;2194127;67;15926;-69
2022/01/20 09:43:53;;;;;;;;;;;;;;;;;;2189745;67;18765;-69
2022/01/20 09:46:26;;;;;;;;;;;;;;;;;;2194766;59;17749;-70
2022/01/20 09:48:59;;;;;;;;;;;;;;;;;;2193920;59;15951;-70
2022/01/20 09:51:35;;;;;;;;;;;;;;;;;;2193746;59;19612;-70
2022/01/20 09:54:08;;;;;;;;;;;;;;;;;;2194077;67;22343;-70
2022/01/20 09:56:44;;;;;;;;;;;;;;;;;;2191261;64;18014;-70
2022/01/20 09:59:17;;;;;;;;;;;;;;;;;;2194557;59;14818;-70
2022/01/20 10:01:52;;;;;;;;;;;;;;;;;;2189767;59;17850;-70
2022/01/20 10:04:27;;;;;;;;;;;;;;;;;;2193668;59;25650;-70
2022/01/20 10:07:03;;;;;;;;;;;;;;;;;;2190262;59;16922;-69
2022/01/20 10:09:39;;;;;;;;;;;;;;;;;;2193056;63;21129;-70
2022/01/20 10:12:14;;;;;;;;;;;;;;;;;;2194740;64;26328;-70
2022/01/20 10:14:48;;;;;;;;;;;;;;;;;;2194347;67;17089;-69
2022/01/20 10:17:23;;;;;;;;;;;;;;;;;;2193963;59;24818;-70
2022/01/20 10:19:58;;;;;;;;;;;;;;;;;;2194698;59;23334;-70
2022/01/20 10:22:35;;;;;;;;;;;;;;;;;;2194385;64;24117;-70
2022/01/20 10:25:09;;;;;;;;;;;;;;;;;;2192735;59;28019;-70
2022/01/20 10:27:48;;;;;;;;;;;;;;;;;;2193313;59;21860;-70
2022/01/20 10:30:22;;;;;;;;;;;;;;;;;;2194574;59;16422;-70
2022/01/20 10:32:58;;;;;;;;;;;;;;;;;;2194771;59;23896;-70
2022/01/20 10:35:36;;;;;;;;;;;;;;;;;;2193537;59;23799;-70
2022/01/20 10:38:13;;;;;;;;;;;;;;;;;;2194675;63;19690;-70
2022/01/20 10:40:50;;;;;;;;;;;;;;;;;;2194486;59;15193;-70
2022/01/20 10:43:24;;;;;;;;;;;;;;;;;;2193876;59;18709;-70
2022/01/20 10:46:05;;;;;;;;;;;;;;;;;;2195157;67;20395;-70
2022/01/20 10:48:38;;;;;;;;;;;;;;;;;;2194445;59;16704;-70
2022/01/20 10:51:17;;;;;;;;;;;;;;;;;;2194181;63;17910;-70
2022/01/20 10:54:01;;;;;;;;;;;;;;;;;;2189728;59;19641;-70
2022/01/20 10:56:38;;;;;;;;;;;;;;;;;;2193186;59;19681;-70
2022/01/20 10:59:12;;;;;;;;;;;;;;;;;;2193341;59;24561;-70
2022/01/20 11:01:45;;;;;;;;;;;;;;;;;;2193472;63;18704;-70
2022/01/20 11:04:18;;;;;;;;;;;;;;;;;;2193951;62;19239;-70
2022/01/20 11:06:55;;;;;;;;;;;;;;;;;;2194423;59;25432;-70
2022/01/20 11:09:32;;;;;;;;;;;;;;;;;;2193534;59;19279;-70
2022/01/20 11:12:06;;;;;;;;;;;;;;;;;;2194608;59;23334;-71
2022/01/20 11:14:39;;;;;;;;;;;;;;;;;;2193511;59;14720;-70
2022/01/20 11:17:19;;;;;;;;;;;;;;;;;;2194172;59;15725;-70
2022/01/20 11:19:53;;;;;;;;;;;;;;;;;;2190090;59;16543;-70
2022/01/20 11:22:27;;;;;;;;;;;;;;;;;;2194495;59;13970;-70
2022/01/20 11:25:04;;;;;;;;;;;;;;;;;;2193266;59;20752;-70
2022/01/20 11:27:47;;;;;;;;;;;;;;;;;;2213506;58;16601;-70
2022/01/20 11:30:23;;;;;;;;;;;;;;;;;;2215540;59;15612;-70
2022/01/20 11:33:01;;;;;;;;;;;;;;;;;;2215196;59;23307;-70
2022/01/20 11:35:38;;;;;;;;;;;;;;;;;;2213506;59;18347;-70
2022/01/20 11:38:13;;;;;;;;;;;;;;;;;;2215259;59;19877;-70
2022/01/20 11:40:51;;;;;;;;;;;;;;;;;;2215684;59;16503;-70
2022/01/20 11:43:39;;;;;;;;;;;;;;;;;;2214111;59;27788;-70
2022/01/20 11:46:14;;;;;;;;;;;;;;;;;;2215310;66;15808;-70
2022/01/20 11:48:55;;;;;;;;;;;;;;;;;;2214018;59;33874;-70
2022/01/20 11:51:30;;;;;;;;;;;;;;;;;;2214349;59;22601;-69
2022/01/20 11:54:06;;;;;;;;;;;;;;;;;;2215836;59;15580;-69
2022/01/20 11:56:40;;;;;;;;;;;;;;;;;;2214300;59;14697;-70
2022/01/20 11:59:17;;;;;;;;;;;;;;;;;;2213667;59;33771;-69
2022/01/20 12:01:52;;;;;;;;;;;;;;;;;;2213443;59;14120;-70
2022/01/20 12:04:32;;;;;;;;;;;;;;;;;;2215003;59;26519;-69
2022/01/20 12:07:06;;;;;;;;;;;;;;;;;;2214236;59;18704;-69
2022/01/20 12:09:41;;;;;;;;;;;;;;;;;;2213331;59;19938;-69
2022/01/20 12:12:23;;;;;;;;;;;;;;;;;;2215274;59;16165;-69
2022/01/20 12:15:08;;;;;;;;;;;;;;;;;;2213720;59;23851;-70
2022/01/20 12:17:41;;;;;;;;;;;;;;;;;;2214486;59;15123;-69
2022/01/20 12:20:15;;;;;;;;;;;;;;;;;;2214479;59;21190;-70
2022/01/20 12:22:48;;;;;;;;;;;;;;;;;;2215211;59;16453;-69
2022/01/20 12:25:24;;;;;;;;;;;;;;;;;;2213650;59;18982;-70
2022/01/20 12:28:04;;;;;;;;;;;;;;;;;;2209131;59;18462;-70
2022/01/20 12:30:47;;;;;;;;;;;;;;;;;;2209539;59;15466;-69
2022/01/20 12:33:23;;;;;;;;;;;;;;;;;;2210480;59;16114;-69
2022/01/20 12:36:02;;;;;;;;;;;;;;;;;;2208468;59;19966;-70
2022/01/20 12:38:36;;;;;;;;;;;;;;;;;;2208409;59;18722;-70
2022/01/20 12:41:11;;;;;;;;;;;;;;;;;;2208230;59;16065;-69
2022/01/20 12:43:46;;;;;;;;;;;;;;;;;;2205190;59;22089;-69
2022/01/20 12:46:22;;;;;;;;;;;;;;;;;;2208070;59;14304;-69
2022/01/20 12:48:57;;;;;;;;;;;;;;;;;;2207097;59;16431;-70
2022/01/20 12:51:34;;;;;;;;;;;;;;;;;;2206702;59;21116;-70
2022/01/20 12:54:08;;;;;;;;;;;;;;;;;;2207037;59;14746;-69
2022/01/20 12:56:44;;;;;;;;;;;;;;;;;;2205904;59;23491;-70
2022/01/20 12:59:20;;;;;;;;;;;;;;;;;;2206468;60;15705;-69
2022/01/20 13:01:59;;;;;;;;;;;;;;;;;;2204909;67;24994;-70
2022/01/20 13:04:33;;;;;;;;;;;;;;;;;;2205985;67;25351;-70
2022/01/20 13:07:09;;;;;;;;;;;;;;;;;;2207106;59;16384;-70
2022/01/20 13:09:44;;;;;;;;;;;;;;;;;;2206057;59;26979;-70
2022/01/20 13:12:18;;;;;;;;;;;;;;;;;;2208327;59;17014;-70
2022/01/20 13:14:52;;;;;;;;;;;;;;;;;;2204564;59;17683;-70
2022/01/20 13:17:30;;;;;;;;;;;;;;;;;;2205403;63;15742;-70
2022/01/20 13:20:15;;;;;;;;;;;;;;;;;;2206725;59;13483;-70
2022/01/20 13:22:56;;;;;;;;;;;;;;;;;;2206614;67;15647;-70
2022/01/20 13:25:31;;;;;;;;;;;;;;;;;;2205211;59;24584;-71
2022/01/20 13:28:06;;;;;;;;;;;;;;;;;;2210320;53;15782;-70
2022/01/20 13:30:41;;;;;;;;;;;;;;;;;;2215066;58;15985;-70
2022/01/20 13:33:19;;;;;;;;;;;;;;;;;;2216575;58;14693;-71
2022/01/20 13:36:00;;;;;;;;;;;;;;;;;;2216534;58;16440;-70
2022/01/20 13:38:33;;;;;;;;;;;;;;;;;;2215021;66;13008;-70
2022/01/20 13:41:08;;;;;;;;;;;;;;;;;;2213138;59;16413;-70
2022/01/20 13:46:39;;;;;;;;;;;;;;;;;;2213137;59;14742;-70
2022/01/20 13:49:17;;;;;;;;;;;;;;;;;;2212775;58;17640;-70
2022/01/20 13:52:00;;;;;;;;;;;;;;;;;;2212596;59;20382;-70
2022/01/20 13:54:40;;;;;;;;;;;;;;;;;;2213616;59;15716;-70
2022/01/20 13:57:13;;;;;;;;;;;;;;;;;;2212963;59;14765;-70
2022/01/20 13:59:50;;;;;;;;;;;;;;;;;;2212708;63;16971;-70
2022/01/20 14:02:23;;;;;;;;;;;;;;;;;;2213414;59;20773;-70
2022/01/20 14:04:59;;;;;;;;;;;;;;;;;;2212601;67;16782;-70
2022/01/20 14:07:33;;;;;;;;;;;;;;;;;;2212637;58;21326;-70
2022/01/20 14:10:06;;;;;;;;;;;;;;;;;;2213551;59;16850;-70
2022/01/20 14:12:39;;;;;;;;;;;;;;;;;;2213700;58;20967;-70
2022/01/20 14:15:13;;;;;;;;;;;;;;;;;;2213363;59;15064;-70
2022/01/20 14:17:51;;;;;;;;;;;;;;;;;;2212064;63;18404;-70
2022/01/20 14:20:29;;;;;;;;;;;;;;;;;;2213468;59;18471;-70
2022/01/20 14:23:03;;;;;;;;;;;;;;;;;;2213762;67;16715;-70
2022/01/20 14:25:37;;;;;;;;;;;;;;;;;;2212243;59;17942;-70
2022/01/20 14:28:10;;;;;;;;;;;;;;;;;;2213083;58;36076;-70
2022/01/20 14:30:43;;;;;;;;;;;;;;;;;;2213094;59;16050;-70
2022/01/20 14:33:16;;;;;;;;;;;;;;;;;;2213180;63;15133;-70
2022/01/20 14:35:52;;;;;;;;;;;;;;;;;;2212584;59;20239;-70
2022/01/20 14:38:28;;;;;;;;;;;;;;;;;;2213707;59;14072;-69
2022/01/20 14:41:01;;;;;;;;;;;;;;;;;;2213651;59;15165;-70
2022/01/20 14:43:34;;;;;;;;;;;;;;;;;;2212617;67;21413;-69
2022/01/20 14:46:08;;;;;;;;;;;;;;;;;;2213637;59;16345;-70
2022/01/20 14:48:41;;;;;;;;;;;;;;;;;;2213816;59;15259;-70
2022/01/20 14:51:17;;;;;;;;;;;;;;;;;;2212688;59;13901;-69
2022/01/20 14:53:50;;;;;;;;;;;;;;;;;;2212324;59;17033;-70
2022/01/20 14:56:23;;;;;;;;;;;;;;;;;;2213979;59;19620;-70
2022/01/20 14:58:56;;;;;;;;;;;;;;;;;;2213028;59;14959;-70
2022/01/20 15:01:29;;;;;;;;;;;;;;;;;;2212606;58;25740;-70
2022/01/20 15:04:03;;;;;;;;;;;;;;;;;;2213664;59;20152;-69
2022/01/20 15:06:39;;;;;;;;;;;;;;;;;;2213106;59;19042;-69
2022/01/20 15:09:13;;;;;;;;;;;;;;;;;;2212902;59;13891;-70
2022/01/20 15:11:46;;;;;;;;;;;;;;;;;;2212847;63;17106;-70
2022/01/20 15:14:20;;;;;;;;;;;;;;;;;;2212849;59;14467;-70
2022/01/20 15:16:53;;;;;;;;;;;;;;;;;;2213410;66;21813;-70
2022/01/20 15:19:26;;;;;;;;;;;;;;;;;;2212548;59;21366;-71
2022/01/20 15:22:02;;;;;;;;;;;;;;;;;;2212911;67;61928;-70
2022/01/20 15:24:35;;;;;;;;;;;;;;;;;;2213398;59;20059;-70
2022/01/20 15:27:09;;;;;;;;;;;;;;;;;;2212756;58;16242;-71
2022/01/20 15:29:42;;;;;;;;;;;;;;;;;;2212522;59;15802;-70
2022/01/20 15:32:15;;;;;;;;;;;;;;;;;;2213542;67;28044;-70
2022/01/20 15:34:48;;;;;;;;;;;;;;;;;;2212884;59;26382;-70
2022/01/20 15:37:24;;;;;;;;;;;;;;;;;;2212931;58;16332;-70
2022/01/20 15:39:57;;;;;;;;;;;;;;;;;;2196858;59;19189;-70
2022/01/20 15:42:30;;;;;;;;;;;;;;;;;;2197662;59;14788;-70
2022/01/20 15:45:04;;;;;;;;;;;;;;;;;;2195790;59;16409;-70
2022/01/20 15:47:37;;;;;;;;;;;;;;;;;;2194980;59;19804;-70
2022/01/20 15:50:12;;;;;;;;;;;;;;;;;;2198443;59;25804;-70
2022/01/20 15:52:48;;;;;;;;;;;;;;;;;;2196894;67;19265;-70
2022/01/20 15:55:21;;;;;;;;;;;;;;;;;;2195903;59;21105;-72
2022/01/20 15:57:54;;;;;;;;;;;;;;;;;;2194927;63;18016;-70
2022/01/20 16:00:28;;;;;;;;;;;;;;;;;;2196507;59;14213;-72
2022/01/20 16:03:01;;;;;;;;;;;;;;;;;;2195089;59;18030;-70
2022/01/20 16:05:34;;;;;;;;;;;;;;;;;;2194280;64;26444;-70
2022/01/20 16:08:12;;;;;;;;;;;;;;;;;;2195587;59;19199;-72
2022/01/20 16:10:46;;;;;;;;;;;;;;;;;;2195260;59;16829;-70
2022/01/20 16:13:19;;;;;;;;;;;;;;;;;;2192910;59;14922;-70
2022/01/20 16:15:52;;;;;;;;;;;;;;;;;;2194559;59;13550;-70
2022/01/20 16:18:26;;;;;;;;;;;;;;;;;;2196031;59;14880;-69
2022/01/20 16:21:01;;;;;;;;;;;;;;;;;;2196815;59;18008;-70
2022/01/20 16:23:37;;;;;;;;;;;;;;;;;;2194733;59;16411;-70
2022/01/20 16:26:10;;;;;;;;;;;;;;;;;;2197161;59;13705;-69
2022/01/20 16:28:43;;;;;;;;;;;;;;;;;;2196457;59;14849;-69
2022/01/20 16:31:17;;;;;;;;;;;;;;;;;;2196079;59;15261;-69
2022/01/20 16:33:51;;;;;;;;;;;;;;;;;;2194220;67;17654;-69
2022/01/20 16:36:24;;;;;;;;;;;;;;;;;;2196533;59;17459;-70
2022/01/20 16:39:00;;;;;;;;;;;;;;;;;;2194450;67;32574;-69
2022/01/20 16:41:33;;;;;;;;;;;;;;;;;;2193984;59;19887;-68
2022/01/20 16:44:06;;;;;;;;;;;;;;;;;;2195101;59;16039;-68
2022/01/20 16:46:39;;;;;;;;;;;;;;;;;;2195377;59;21663;-68
2022/01/20 16:49:12;;;;;;;;;;;;;;;;;;2194573;59;19885;-68
2022/01/20 16:51:45;;;;;;;;;;;;;;;;;;2194655;59;18840;-69
2022/01/20 16:54:21;;;;;;;;;;;;;;;;;;2194966;64;22588;-68
2022/01/20 16:56:54;;;;;;;;;;;;;;;;;;2192400;59;19475;-69
2022/01/20 16:59:28;;;;;;;;;;;;;;;;;;2194136;59;17074;-68
2022/01/20 17:02:01;;;;;;;;;;;;;;;;;;2192499;59;131279;-68
2022/01/20 17:04:34;;;;;;;;;;;;;;;;;;2193850;59;12948;-68
2022/01/20 17:07:07;;;;;;;;;;;;;;;;;;2192203;59;15204;-68
2022/01/20 17:09:43;;;;;;;;;;;;;;;;;;2192853;59;32815;-68
2022/01/20 17:12:17;;;;;;;;;;;;;;;;;;2195402;59;21342;-68
2022/01/20 17:14:50;;;;;;;;;;;;;;;;;;2192194;59;15961;-68
2022/01/20 17:17:23;;;;;;;;;;;;;;;;;;2193878;59;16465;-68
2022/01/20 17:19:56;;;;;;;;;;;;;;;;;;2195061;59;13855;-68
2022/01/20 17:22:29;;;;;;;;;;;;;;;;;;2198163;59;13299;-68
2022/01/20 17:25:05;;;;;;;;;;;;;;;;;;2192719;59;25684;-68
2022/01/20 17:27:38;;;;;;;;;;;;;;;;;;2191437;59;27662;-68
2022/01/20 17:30:12;;;;;;;;;;;;;;;;;;2195421;59;23021;-68
2022/01/20 17:32:45;;;;;;;;;;;;;;;;;;2194370;59;21204;-68
2022/01/20 17:35:18;;;;;;;;;;;;;;;;;;2195766;59;15472;-70
2022/01/20 17:37:51;;;;;;;;;;;;;;;;;;2203752;59;20869;-70
2022/01/20 17:40:27;;;;;;;;;;;;;;;;;;2195342;67;17398;-70
2022/01/20 17:43:01;;;;;;;;;;;;;;;;;;2189795;59;23009;-71
2022/01/20 17:45:34;;;;;;;;;;;;;;;;;;2194710;59;16652;-70
2022/01/20 17:48:07;;;;;;;;;;;;;;;;;;2193289;59;14530;-70
2022/01/20 17:50:40;;;;;;;;;;;;;;;;;;2196001;59;15389;-70
2022/01/20 17:53:13;;;;;;;;;;;;;;;;;;2195064;59;16217;-71
2022/01/20 17:55:50;;;;;;;;;;;;;;;;;;2196880;58;19440;-71
2022/01/20 17:58:23;;;;;;;;;;;;;;;;;;2197044;59;21573;-71
2022/01/20 18:00:56;;;;;;;;;;;;;;;;;;2196503;59;15651;-71
2022/01/20 18:03:29;;;;;;;;;;;;;;;;;;2195710;59;14594;-71
2022/01/20 18:06:02;;;;;;;;;;;;;;;;;;2196026;59;16680;-71
2022/01/20 18:08:35;;;;;;;;;;;;;;;;;;2194829;59;16156;-71
2022/01/20 18:11:11;;;;;;;;;;;;;;;;;;2196560;67;14643;-71
2022/01/20 18:13:45;;;;;;;;;;;;;;;;;;2198741;59;27032;-71
2022/01/20 18:16:18;;;;;;;;;;;;;;;;;;2196492;59;29721;-71
2022/01/20 18:18:51;;;;;;;;;;;;;;;;;;2196817;67;14604;-71
2022/01/20 18:21:24;;;;;;;;;;;;;;;;;;2194828;59;15199;-72
2022/01/20 18:23:57;;;;;;;;;;;;;;;;;;2195985;59;14074;-71
2022/01/20 18:26:33;;;;;;;;;;;;;;;;;;2196751;59;14573;-71
2022/01/20 18:29:06;;;;;;;;;;;;;;;;;;2196191;59;14871;-71